createdAt,value
2017-07-17T00:00:24.581Z,26.35
2017-07-17T00:01:24.617Z,26.28
2017-07-17T00:02:24.578Z,26.35
2017-07-17T00:03:24.665Z,26.25
2017-07-17T00:04:24.383Z,26.32
2017-07-17T00:05:24.412Z,26.32
2017-07-17T00:06:24.761Z,26.3
2017-07-17T00:07:25.042Z,26.33
2017-07-17T00:08:24.810Z,26.3
2017-07-17T00:09:24.843Z,26.3
2017-07-17T00:10:24.875Z,26.28
2017-07-17T00:11:24.901Z,26.33
2017-07-17T00:12:25.237Z,26.32
2017-07-17T00:13:24.965Z,26.3
2017-07-17T00:14:24.667Z,26.25
2017-07-17T00:15:25.021Z,26.32
2017-07-17T00:16:24.717Z,26.3
2017-07-17T00:17:25.010Z,26.29
2017-07-17T00:18:24.831Z,26.3
2017-07-17T00:19:25.135Z,26.28
2017-07-17T00:20:25.160Z,26.3
2017-07-17T00:21:25.186Z,26.26
2017-07-17T00:22:25.145Z,26.28
2017-07-17T00:23:25.242Z,26.3
2017-07-17T00:24:25.279Z,26.29
2017-07-17T00:25:24.984Z,26.26
2017-07-17T00:26:25.342Z,26.35
2017-07-17T00:27:25.622Z,26.33
2017-07-17T00:28:25.074Z,26.28
2017-07-17T00:29:25.431Z,26.32
2017-07-17T00:30:25.449Z,26.29
2017-07-17T00:31:25.477Z,26.28
2017-07-17T00:32:25.814Z,26.32
2017-07-17T00:33:25.223Z,26.29
2017-07-17T00:34:25.559Z,26.25
2017-07-17T00:35:25.273Z,26.32
2017-07-17T00:36:25.318Z,26.3
2017-07-17T00:37:25.953Z,26.3
2017-07-17T00:38:25.356Z,26.26
2017-07-17T00:39:25.720Z,26.3
2017-07-17T00:40:25.740Z,26.32
2017-07-17T00:41:25.450Z,26.21
2017-07-17T00:42:26.049Z,26.32
2017-07-17T00:43:25.835Z,26.29
2017-07-17T00:44:25.540Z,26.23
2017-07-17T00:45:25.877Z,26.28
2017-07-17T00:46:25.593Z,26.26
2017-07-17T00:47:25.925Z,26.28
2017-07-17T00:48:25.654Z,26.23
2017-07-17T00:49:25.683Z,26.28
2017-07-17T00:50:25.709Z,26.23
2017-07-17T00:51:26.066Z,26.26
2017-07-17T00:52:26.030Z,26.23
2017-07-17T00:53:26.120Z,26.25
2017-07-17T00:54:25.827Z,26.23
2017-07-17T00:55:25.856Z,26.28
2017-07-17T00:56:25.874Z,26.17
2017-07-17T00:57:26.157Z,26.23
2017-07-17T00:58:26.267Z,26.26
2017-07-17T00:59:26.296Z,26.25
2017-07-17T01:00:26.321Z,26.29
2017-07-17T01:01:26.034Z,26.2
2017-07-17T01:02:26.358Z,26.28
2017-07-17T01:03:26.400Z,26.25
2017-07-17T01:04:26.432Z,26.15
2017-07-17T01:05:26.465Z,26.23
2017-07-17T01:06:26.501Z,26.21
2017-07-17T01:07:26.203Z,26.15
2017-07-17T01:08:26.231Z,26.2
2017-07-17T01:09:25.932Z,26.18
2017-07-17T01:10:26.293Z,26.18
2017-07-17T01:11:26.321Z,26.2
2017-07-17T01:12:26.026Z,26.2
2017-07-17T01:13:26.376Z,26.07
2017-07-17T01:14:26.728Z,26.23
2017-07-17T01:15:26.753Z,26.13
2017-07-17T01:16:26.777Z,26.07
2017-07-17T01:17:26.502Z,26.2
2017-07-17T01:18:26.843Z,26.15
2017-07-17T01:19:26.549Z,26.06
2017-07-17T01:20:26.894Z,26.25
2017-07-17T01:21:26.938Z,26.15
2017-07-17T01:22:26.641Z,26.21
2017-07-17T01:23:26.916Z,26.13
2017-07-17T01:24:26.696Z,26.17
2017-07-17T01:25:26.409Z,26.17
2017-07-17T01:26:26.750Z,26.1
2017-07-17T01:27:26.782Z,26.09
2017-07-17T01:28:27.076Z,26.18
2017-07-17T01:29:26.521Z,26.13
2017-07-17T01:30:26.870Z,26.09
2017-07-17T01:31:27.222Z,26.1
2017-07-17T01:32:27.250Z,26.13
2017-07-17T01:33:26.941Z,26.09
2017-07-17T01:34:26.988Z,26.1
2017-07-17T01:35:27.009Z,26.09
2017-07-17T01:36:27.035Z,26.02
2017-07-17T01:37:27.387Z,26.09
2017-07-17T01:38:27.351Z,26.05
2017-07-17T01:39:27.121Z,26.12
2017-07-17T01:40:27.473Z,26.1
2017-07-17T01:41:27.501Z,26.12
2017-07-17T01:42:27.526Z,26.1
2017-07-17T01:43:27.490Z,26.13
2017-07-17T01:44:26.955Z,26.06
2017-07-17T01:45:27.301Z,26.09
2017-07-17T01:46:27.329Z,26.07
2017-07-17T01:47:27.366Z,26.1
2017-07-17T01:48:27.367Z,26.07
2017-07-17T01:49:27.415Z,26.07
2017-07-17T01:50:27.764Z,26.12
2017-07-17T01:51:27.469Z,26.05
2017-07-17T01:52:27.502Z,26.09
2017-07-17T01:53:28.095Z,26.02
2017-07-17T01:54:27.879Z,26.09
2017-07-17T01:55:27.269Z,26.01
2017-07-17T01:56:27.611Z,26.02
2017-07-17T01:57:27.963Z,26.02
2017-07-17T01:58:27.975Z,26.07
2017-07-17T01:59:27.388Z,26.02
2017-07-17T02:00:28.050Z,26.1
2017-07-17T02:01:28.069Z,26.07
2017-07-17T02:02:28.161Z,26.07
2017-07-17T02:03:28.071Z,26.06
2017-07-17T02:04:27.851Z,26.07
2017-07-17T02:05:27.564Z,26.09
2017-07-17T02:06:27.906Z,26.01
2017-07-17T02:07:27.933Z,26.01
2017-07-17T02:08:28.262Z,26.02
2017-07-17T02:09:27.979Z,26.05
2017-07-17T02:10:28.337Z,26.09
2017-07-17T02:11:27.728Z,26.05
2017-07-17T02:12:28.397Z,26.07
2017-07-17T02:13:28.666Z,26.02
2017-07-17T02:14:28.140Z,26.06
2017-07-17T02:15:28.168Z,26.07
2017-07-17T02:16:28.515Z,26.1
2017-07-17T02:17:28.535Z,25.98
2017-07-17T02:18:28.504Z,26.05
2017-07-17T02:19:28.276Z,26.02
2017-07-17T02:20:28.625Z,26.05
2017-07-17T02:21:28.333Z,26.01
2017-07-17T02:22:28.354Z,26.07
2017-07-17T02:23:28.634Z,26.02
2017-07-17T02:24:28.420Z,26.05
2017-07-17T02:25:28.764Z,26.06
2017-07-17T02:26:28.485Z,25.99
2017-07-17T02:27:28.502Z,26.02
2017-07-17T02:28:29.152Z,26.06
2017-07-17T02:29:28.566Z,25.95
2017-07-17T02:30:28.588Z,26.05
2017-07-17T02:31:28.297Z,25.99
2017-07-17T02:32:28.958Z,25.92
2017-07-17T02:33:28.916Z,26.01
2017-07-17T02:34:28.699Z,25.98
2017-07-17T02:35:28.737Z,25.95
2017-07-17T02:36:28.769Z,25.92
2017-07-17T02:37:29.112Z,26.01
2017-07-17T02:38:29.388Z,25.98
2017-07-17T02:39:28.839Z,25.97
2017-07-17T02:40:28.876Z,25.95
2017-07-17T02:41:29.229Z,26.01
2017-07-17T02:42:28.938Z,26.01
2017-07-17T02:43:29.263Z,25.95
2017-07-17T02:44:29.323Z,25.92
2017-07-17T02:45:29.024Z,25.92
2017-07-17T02:46:29.368Z,26.05
2017-07-17T02:47:29.078Z,25.97
2017-07-17T02:48:29.412Z,26.05
2017-07-17T02:49:29.448Z,25.9
2017-07-17T02:50:28.845Z,25.99
2017-07-17T02:51:28.878Z,25.91
2017-07-17T02:52:28.902Z,25.97
2017-07-17T02:53:29.183Z,25.98
2017-07-17T02:54:29.273Z,25.98
2017-07-17T02:55:28.989Z,25.98
2017-07-17T02:56:29.338Z,25.91
2017-07-17T02:57:29.371Z,25.94
2017-07-17T02:58:29.970Z,26.05
2017-07-17T02:59:29.740Z,25.97
2017-07-17T03:00:29.449Z,25.97
2017-07-17T03:01:29.486Z,25.9
2017-07-17T03:02:29.828Z,26.01
2017-07-17T03:03:30.152Z,25.94
2017-07-17T03:04:29.569Z,25.97
2017-07-17T03:05:29.593Z,25.97
2017-07-17T03:06:29.625Z,25.9
2017-07-17T03:07:29.966Z,25.98
2017-07-17T03:08:30.255Z,25.9
2017-07-17T03:09:29.712Z,25.99
2017-07-17T03:10:30.061Z,25.94
2017-07-17T03:11:29.451Z,25.91
2017-07-17T03:12:30.119Z,25.98
2017-07-17T03:13:30.082Z,25.91
2017-07-17T03:14:30.177Z,25.9
2017-07-17T03:15:30.201Z,25.9
2017-07-17T03:16:30.221Z,25.92
2017-07-17T03:17:29.942Z,25.94
2017-07-17T03:18:30.536Z,25.92
2017-07-17T03:19:30.305Z,25.91
2017-07-17T03:20:30.021Z,25.95
2017-07-17T03:21:30.374Z,25.9
2017-07-17T03:22:30.391Z,25.9
2017-07-17T03:23:30.406Z,25.88
2017-07-17T03:24:30.456Z,25.94
2017-07-17T03:25:30.164Z,25.88
2017-07-17T03:26:29.878Z,25.9
2017-07-17T03:27:30.543Z,25.85
2017-07-17T03:28:30.820Z,25.9
2017-07-17T03:29:30.596Z,25.88
2017-07-17T03:30:30.629Z,25.9
2017-07-17T03:31:30.659Z,25.88
2017-07-17T03:32:30.684Z,25.92
2017-07-17T03:33:30.645Z,25.88
2017-07-17T03:34:30.746Z,25.83
2017-07-17T03:35:30.777Z,25.88
2017-07-17T03:36:30.527Z,25.85
2017-07-17T03:37:30.875Z,25.87
2017-07-17T03:38:31.113Z,25.87
2017-07-17T03:39:30.249Z,25.83
2017-07-17T03:40:30.910Z,25.9
2017-07-17T03:41:30.943Z,25.85
2017-07-17T03:42:30.648Z,25.9
2017-07-17T03:43:30.928Z,25.9
2017-07-17T03:44:30.710Z,25.9
2017-07-17T03:45:30.736Z,25.9
2017-07-17T03:46:30.766Z,25.92
2017-07-17T03:47:31.108Z,25.85
2017-07-17T03:48:31.441Z,25.91
2017-07-17T03:49:30.534Z,25.94
2017-07-17T03:50:30.558Z,25.88
2017-07-17T03:51:30.902Z,25.92
2017-07-17T03:52:31.262Z,25.91
2017-07-17T03:53:30.950Z,25.91
2017-07-17T03:54:31.318Z,25.88
2017-07-17T03:55:31.338Z,25.85
2017-07-17T03:56:31.367Z,25.94
2017-07-17T03:57:31.081Z,25.88
2017-07-17T03:58:31.676Z,25.91
2017-07-17T03:59:31.466Z,25.85
2017-07-17T04:00:31.161Z,25.9
2017-07-17T04:01:31.200Z,25.87
2017-07-17T04:02:31.545Z,25.87
2017-07-17T04:03:31.826Z,25.8
2017-07-17T04:04:31.598Z,25.88
2017-07-17T04:05:30.982Z,25.77
2017-07-17T04:06:31.662Z,25.88
2017-07-17T04:07:31.688Z,25.76
2017-07-17T04:08:32.016Z,25.8
2017-07-17T04:09:31.744Z,25.75
2017-07-17T04:10:31.771Z,25.88
2017-07-17T04:11:31.476Z,25.88
2017-07-17T04:12:31.512Z,25.9
2017-07-17T04:13:31.781Z,25.77
2017-07-17T04:14:31.570Z,25.8
2017-07-17T04:15:31.908Z,25.76
2017-07-17T04:16:31.628Z,25.8
2017-07-17T04:17:31.657Z,25.83
2017-07-17T04:18:32.252Z,25.83
2017-07-17T04:19:32.023Z,25.8
2017-07-17T04:20:32.063Z,25.85
2017-07-17T04:21:31.448Z,25.87
2017-07-17T04:22:31.797Z,25.83
2017-07-17T04:23:32.137Z,25.83
2017-07-17T04:24:31.855Z,25.8
2017-07-17T04:25:31.880Z,25.8
2017-07-17T04:26:32.229Z,25.87
2017-07-17T04:27:32.258Z,25.77
2017-07-17T04:28:31.972Z,25.8
2017-07-17T04:29:32.003Z,25.77
2017-07-17T04:30:32.022Z,25.8
2017-07-17T04:31:31.769Z,25.8
2017-07-17T04:32:32.082Z,25.75
2017-07-17T04:33:32.431Z,25.77
2017-07-17T04:34:32.135Z,25.79
2017-07-17T04:35:32.159Z,25.77
2017-07-17T04:36:32.187Z,25.79
2017-07-17T04:37:32.217Z,25.77
2017-07-17T04:38:32.567Z,25.83
2017-07-17T04:39:32.287Z,25.77
2017-07-17T04:40:32.310Z,25.8
2017-07-17T04:41:32.337Z,25.76
2017-07-17T04:42:32.363Z,25.8
2017-07-17T04:43:32.390Z,25.82
2017-07-17T04:44:32.419Z,25.8
2017-07-17T04:45:32.764Z,25.8
2017-07-17T04:46:32.162Z,25.8
2017-07-17T04:47:32.830Z,25.79
2017-07-17T04:48:32.215Z,25.77
2017-07-17T04:49:33.135Z,25.82
2017-07-17T04:50:32.914Z,25.77
2017-07-17T04:51:32.945Z,25.85
2017-07-17T04:52:32.651Z,25.75
2017-07-17T04:53:32.676Z,25.76
2017-07-17T04:54:33.005Z,25.8
2017-07-17T04:55:33.045Z,25.87
2017-07-17T04:56:32.766Z,25.77
2017-07-17T04:57:32.790Z,25.85
2017-07-17T04:58:32.817Z,25.85
2017-07-17T04:59:33.112Z,25.82
2017-07-17T05:00:32.556Z,25.8
2017-07-17T05:01:32.915Z,25.77
2017-07-17T05:02:32.615Z,25.87
2017-07-17T05:03:32.959Z,25.8
2017-07-17T05:04:33.560Z,25.88
2017-07-17T05:05:33.334Z,25.9
2017-07-17T05:06:33.054Z,25.88
2017-07-17T05:07:33.406Z,25.91
2017-07-17T05:08:33.103Z,25.87
2017-07-17T05:09:33.392Z,25.91
2017-07-17T05:10:33.165Z,25.9
2017-07-17T05:11:33.510Z,25.87
2017-07-17T05:12:33.226Z,25.92
2017-07-17T05:13:33.247Z,25.9
2017-07-17T05:14:33.252Z,25.91
2017-07-17T05:15:33.620Z,25.91
2017-07-17T05:16:33.653Z,25.87
2017-07-17T05:17:33.048Z,25.92
2017-07-17T05:18:33.711Z,25.88
2017-07-17T05:19:33.096Z,25.95
2017-07-17T05:20:33.129Z,25.94
2017-07-17T05:21:33.477Z,25.99
2017-07-17T05:22:33.496Z,25.95
2017-07-17T05:23:33.211Z,25.88
2017-07-17T05:24:33.548Z,25.9
2017-07-17T05:25:33.585Z,25.87
2017-07-17T05:26:33.614Z,25.97
2017-07-17T05:27:33.647Z,25.88
2017-07-17T05:28:33.991Z,25.91
2017-07-17T05:29:33.704Z,25.98
2017-07-17T05:30:33.785Z,25.91
2017-07-17T05:31:33.761Z,26.02
2017-07-17T05:32:34.209Z,26.01
2017-07-17T05:33:34.142Z,25.98
2017-07-17T05:34:33.848Z,25.95
2017-07-17T05:35:34.183Z,25.98
2017-07-17T05:36:33.954Z,25.94
2017-07-17T05:37:33.931Z,26.02
2017-07-17T05:38:33.960Z,26.05
2017-07-17T05:39:33.988Z,26.01
2017-07-17T05:40:33.753Z,25.98
2017-07-17T05:41:34.377Z,25.95
2017-07-17T05:42:34.396Z,26.05
2017-07-17T05:43:34.110Z,26.01
2017-07-17T05:44:34.140Z,26.05
2017-07-17T05:45:34.171Z,25.94
2017-07-17T05:46:34.188Z,25.92
2017-07-17T05:47:34.536Z,26.05
2017-07-17T05:48:34.254Z,25.99
2017-07-17T05:49:33.958Z,26.02
2017-07-17T05:50:34.315Z,26.07
2017-07-17T05:51:34.331Z,26.06
2017-07-17T05:52:34.043Z,26.07
2017-07-17T05:53:34.072Z,26.09
2017-07-17T05:54:34.103Z,26.07
2017-07-17T05:55:34.446Z,26.05
2017-07-17T05:56:34.475Z,26.07
2017-07-17T05:57:34.503Z,26.01
2017-07-17T05:58:34.214Z,26.17
2017-07-17T05:59:34.885Z,26.02
2017-07-17T06:00:34.587Z,26.05
2017-07-17T06:01:34.618Z,26.07
2017-07-17T06:02:34.328Z,26.1
2017-07-17T06:03:34.356Z,26.13
2017-07-17T06:04:34.385Z,26.12
2017-07-17T06:05:35.306Z,26.07
2017-07-17T06:06:34.444Z,26.07
2017-07-17T06:07:35.112Z,26.12
2017-07-17T06:08:34.815Z,26.06
2017-07-17T06:09:35.174Z,26.06
2017-07-17T06:10:35.129Z,26.1
2017-07-17T06:11:35.226Z,26.1
2017-07-17T06:12:35.259Z,26.12
2017-07-17T06:13:34.644Z,26.09
2017-07-17T06:14:34.993Z,26.09
2017-07-17T06:15:35.273Z,26.1
2017-07-17T06:16:35.377Z,26.12
2017-07-17T06:17:35.400Z,26.15
2017-07-17T06:18:35.107Z,26.13
2017-07-17T06:19:35.450Z,26.13
2017-07-17T06:20:35.097Z,26.15
2017-07-17T06:21:35.516Z,26.12
2017-07-17T06:22:35.215Z,26.2
2017-07-17T06:23:35.247Z,26.23
2017-07-17T06:24:35.282Z,26.21
2017-07-17T06:25:35.573Z,26.2
2017-07-17T06:26:35.651Z,26.17
2017-07-17T06:27:35.363Z,26.2
2017-07-17T06:28:35.397Z,26.21
2017-07-17T06:29:35.737Z,26.21
2017-07-17T06:30:35.696Z,26.2
2017-07-17T06:31:35.798Z,26.26
2017-07-17T06:32:35.827Z,26.28
2017-07-17T06:33:35.540Z,26.2
2017-07-17T06:34:35.558Z,26.26
2017-07-17T06:35:36.162Z,26.25
2017-07-17T06:36:35.619Z,26.23
2017-07-17T06:37:35.967Z,26.29
2017-07-17T06:38:35.682Z,26.21
2017-07-17T06:39:36.017Z,26.26
2017-07-17T06:40:35.674Z,26.2
2017-07-17T06:41:36.094Z,26.29
2017-07-17T06:42:35.793Z,26.29
2017-07-17T06:43:35.505Z,26.28
2017-07-17T06:44:35.533Z,26.29
2017-07-17T06:45:36.126Z,26.3
2017-07-17T06:46:35.907Z,26.25
2017-07-17T06:47:35.616Z,26.32
2017-07-17T06:48:35.967Z,26.4
2017-07-17T06:49:36.326Z,26.28
2017-07-17T06:50:36.594Z,26.4
2017-07-17T06:51:36.058Z,26.3
2017-07-17T06:52:36.403Z,26.32
2017-07-17T06:53:36.112Z,26.35
2017-07-17T06:54:36.136Z,26.4
2017-07-17T06:55:36.746Z,26.39
2017-07-17T06:56:36.520Z,26.37
2017-07-17T06:57:35.908Z,26.36
2017-07-17T06:58:36.569Z,26.43
2017-07-17T06:59:35.965Z,26.37
2017-07-17T07:00:36.572Z,26.4
2017-07-17T07:01:36.023Z,26.39
2017-07-17T07:02:36.367Z,26.39
2017-07-17T07:03:36.658Z,26.4
2017-07-17T07:04:36.690Z,26.39
2017-07-17T07:05:36.762Z,26.4
2017-07-17T07:06:36.487Z,26.43
2017-07-17T07:07:36.200Z,26.36
2017-07-17T07:08:36.585Z,26.39
2017-07-17T07:09:36.893Z,26.43
2017-07-17T07:10:36.853Z,26.43
2017-07-17T07:11:36.950Z,26.45
2017-07-17T07:12:36.663Z,26.4
2017-07-17T07:13:36.368Z,26.44
2017-07-17T07:14:36.720Z,26.5
2017-07-17T07:15:36.994Z,26.52
2017-07-17T07:16:36.776Z,26.39
2017-07-17T07:17:37.117Z,26.5
2017-07-17T07:18:37.157Z,26.43
2017-07-17T07:19:37.189Z,26.51
2017-07-17T07:20:37.190Z,26.44
2017-07-17T07:21:36.923Z,26.48
2017-07-17T07:22:36.623Z,26.51
2017-07-17T07:23:37.297Z,26.55
2017-07-17T07:24:36.998Z,26.55
2017-07-17T07:25:37.281Z,26.51
2017-07-17T07:26:37.383Z,26.58
2017-07-17T07:27:37.096Z,26.5
2017-07-17T07:28:37.125Z,26.63
2017-07-17T07:29:37.148Z,26.55
2017-07-17T07:30:37.182Z,26.54
2017-07-17T07:31:37.528Z,26.51
2017-07-17T07:32:37.240Z,26.58
2017-07-17T07:33:37.589Z,26.58
2017-07-17T07:34:37.610Z,26.5
2017-07-17T07:35:37.319Z,26.58
2017-07-17T07:36:37.352Z,26.58
2017-07-17T07:37:37.703Z,26.51
2017-07-17T07:38:37.729Z,26.63
2017-07-17T07:39:37.442Z,26.62
2017-07-17T07:40:37.784Z,26.57
2017-07-17T07:41:37.175Z,26.69
2017-07-17T07:42:37.533Z,26.69
2017-07-17T07:43:37.557Z,26.6
2017-07-17T07:44:37.902Z,26.65
2017-07-17T07:45:37.630Z,26.63
2017-07-17T07:46:37.634Z,26.66
2017-07-17T07:47:37.996Z,26.62
2017-07-17T07:48:37.396Z,26.63
2017-07-17T07:49:37.730Z,26.73
2017-07-17T07:50:38.066Z,26.8
2017-07-17T07:51:38.098Z,26.67
2017-07-17T07:52:37.498Z,26.66
2017-07-17T07:53:37.845Z,26.7
2017-07-17T07:54:37.873Z,26.77
2017-07-17T07:55:37.915Z,26.67
2017-07-17T07:56:38.184Z,26.69
2017-07-17T07:57:37.960Z,26.8
2017-07-17T07:58:37.989Z,26.76
2017-07-17T07:59:38.338Z,26.77
2017-07-17T08:00:38.051Z,26.8
2017-07-17T08:01:38.391Z,26.85
2017-07-17T08:02:38.431Z,26.81
2017-07-17T08:03:38.462Z,26.82
2017-07-17T08:04:38.170Z,26.84
2017-07-17T08:05:38.522Z,26.82
2017-07-17T08:06:38.473Z,26.88
2017-07-17T08:07:38.261Z,26.87
2017-07-17T08:08:38.283Z,26.82
2017-07-17T08:09:38.309Z,26.91
2017-07-17T08:10:38.342Z,26.8
2017-07-17T08:11:38.623Z,26.76
2017-07-17T08:12:38.389Z,26.77
2017-07-17T08:13:38.740Z,26.8
2017-07-17T08:14:38.781Z,26.84
2017-07-17T08:15:38.811Z,26.87
2017-07-17T08:16:39.091Z,26.88
2017-07-17T08:17:38.546Z,26.85
2017-07-17T08:18:38.909Z,26.85
2017-07-17T08:19:38.919Z,26.87
2017-07-17T08:20:38.315Z,26.89
2017-07-17T08:21:38.910Z,26.84
2017-07-17T08:22:39.004Z,26.87
2017-07-17T08:23:38.401Z,26.84
2017-07-17T08:24:38.752Z,26.91
2017-07-17T08:25:38.782Z,26.88
2017-07-17T08:26:38.738Z,26.87
2017-07-17T08:27:39.152Z,26.92
2017-07-17T08:28:39.193Z,26.88
2017-07-17T08:29:38.573Z,26.87
2017-07-17T08:30:38.928Z,26.87
2017-07-17T08:31:39.207Z,26.92
2017-07-17T08:32:38.989Z,26.94
2017-07-17T08:33:38.695Z,26.95
2017-07-17T08:34:39.374Z,26.92
2017-07-17T08:35:39.390Z,26.92
2017-07-17T08:36:39.035Z,26.92
2017-07-17T08:37:39.124Z,26.92
2017-07-17T08:38:38.847Z,27.02
2017-07-17T08:39:39.193Z,27
2017-07-17T08:40:39.217Z,26.95
2017-07-17T08:41:39.867Z,26.94
2017-07-17T08:42:38.956Z,27.02
2017-07-17T08:43:39.624Z,26.99
2017-07-17T08:44:39.653Z,27.09
2017-07-17T08:45:39.670Z,27.02
2017-07-17T08:46:39.656Z,27.02
2017-07-17T08:47:39.743Z,27.04
2017-07-17T08:48:39.452Z,27.03
2017-07-17T08:49:39.801Z,27.03
2017-07-17T08:50:39.530Z,27.04
2017-07-17T08:51:40.119Z,27.12
2017-07-17T08:52:39.887Z,27.1
2017-07-17T08:53:39.919Z,27.06
2017-07-17T08:54:39.314Z,27.1
2017-07-17T08:55:39.650Z,27.13
2017-07-17T08:56:40.248Z,27.14
2017-07-17T08:57:40.034Z,27.14
2017-07-17T08:58:39.745Z,27.1
2017-07-17T08:59:39.772Z,27.1
2017-07-17T09:00:39.801Z,27.1
2017-07-17T09:01:40.083Z,27.14
2017-07-17T09:02:40.184Z,27.24
2017-07-17T09:03:40.205Z,27.25
2017-07-17T09:04:39.606Z,27.21
2017-07-17T09:05:40.266Z,27.17
2017-07-17T09:06:40.238Z,27.19
2017-07-17T09:07:40.009Z,27.19
2017-07-17T09:08:39.712Z,27.24
2017-07-17T09:09:40.061Z,27.28
2017-07-17T09:10:40.083Z,27.28
2017-07-17T09:11:40.051Z,27.21
2017-07-17T09:12:40.153Z,27.29
2017-07-17T09:13:40.179Z,27.24
2017-07-17T09:14:40.210Z,27.25
2017-07-17T09:15:40.562Z,27.28
2017-07-17T09:16:40.523Z,27.27
2017-07-17T09:17:40.617Z,27.28
2017-07-17T09:18:40.324Z,27.34
2017-07-17T09:19:40.682Z,27.27
2017-07-17T09:20:40.390Z,27.22
2017-07-17T09:21:40.715Z,27.24
2017-07-17T09:22:40.128Z,27.36
2017-07-17T09:23:40.472Z,27.34
2017-07-17T09:24:40.506Z,27.36
2017-07-17T09:25:40.530Z,27.34
2017-07-17T09:26:40.862Z,27.31
2017-07-17T09:27:40.592Z,27.37
2017-07-17T09:28:40.624Z,27.39
2017-07-17T09:29:40.658Z,27.4
2017-07-17T09:30:40.686Z,27.39
2017-07-17T09:31:40.959Z,27.39
2017-07-17T09:32:41.056Z,27.47
2017-07-17T09:33:40.773Z,27.46
2017-07-17T09:34:41.126Z,27.4
2017-07-17T09:35:40.514Z,27.4
2017-07-17T09:36:41.452Z,27.32
2017-07-17T09:37:40.892Z,27.41
2017-07-17T09:38:41.237Z,27.51
2017-07-17T09:39:40.949Z,27.4
2017-07-17T09:40:40.663Z,27.49
2017-07-17T09:41:41.251Z,27.46
2017-07-17T09:42:41.032Z,27.51
2017-07-17T09:43:41.068Z,27.5
2017-07-17T09:44:41.418Z,27.54
2017-07-17T09:45:41.124Z,27.54
2017-07-17T09:46:41.732Z,27.62
2017-07-17T09:47:40.864Z,27.54
2017-07-17T09:48:41.213Z,27.5
2017-07-17T09:49:41.245Z,27.54
2017-07-17T09:50:41.583Z,27.55
2017-07-17T09:51:41.584Z,27.57
2017-07-17T09:52:41.336Z,27.59
2017-07-17T09:53:41.370Z,27.59
2017-07-17T09:54:41.707Z,27.59
2017-07-17T09:55:41.414Z,27.51
2017-07-17T09:56:41.697Z,27.57
2017-07-17T09:57:41.165Z,27.51
2017-07-17T09:58:41.513Z,27.49
2017-07-17T09:59:41.858Z,27.5
2017-07-17T10:00:41.566Z,27.5
2017-07-17T10:01:41.859Z,27.62
2017-07-17T10:02:41.642Z,27.49
2017-07-17T10:03:41.665Z,27.57
2017-07-17T10:04:41.683Z,27.6
2017-07-17T10:05:41.722Z,27.5
2017-07-17T10:06:41.993Z,27.59
2017-07-17T10:07:42.092Z,27.55
2017-07-17T10:08:42.134Z,27.6
2017-07-17T10:09:42.162Z,27.62
2017-07-17T10:10:41.866Z,27.63
2017-07-17T10:11:42.464Z,27.65
2017-07-17T10:12:42.243Z,27.65
2017-07-17T10:13:41.957Z,27.62
2017-07-17T10:14:42.309Z,27.66
2017-07-17T10:15:42.330Z,27.6
2017-07-17T10:16:42.607Z,27.63
2017-07-17T10:17:42.072Z,27.63
2017-07-17T10:18:42.105Z,27.63
2017-07-17T10:19:42.442Z,27.65
2017-07-17T10:20:42.487Z,27.66
2017-07-17T10:21:41.868Z,27.63
2017-07-17T10:22:42.218Z,27.65
2017-07-17T10:23:42.241Z,27.6
2017-07-17T10:24:42.606Z,27.67
2017-07-17T10:25:42.311Z,27.6
2017-07-17T10:26:42.349Z,27.63
2017-07-17T10:27:42.680Z,27.6
2017-07-17T10:28:42.722Z,27.72
2017-07-17T10:29:42.747Z,27.74
2017-07-17T10:30:42.771Z,27.7
2017-07-17T10:31:42.808Z,27.66
2017-07-17T10:32:42.832Z,27.74
2017-07-17T10:33:42.545Z,27.77
2017-07-17T10:34:42.574Z,27.78
2017-07-17T10:35:42.607Z,27.77
2017-07-17T10:36:42.640Z,27.78
2017-07-17T10:37:42.348Z,27.88
2017-07-17T10:38:42.698Z,27.87
2017-07-17T10:39:42.722Z,27.85
2017-07-17T10:40:42.755Z,27.93
2017-07-17T10:41:43.103Z,27.94
2017-07-17T10:42:43.145Z,27.94
2017-07-17T10:43:43.190Z,27.92
2017-07-17T10:44:43.200Z,27.81
2017-07-17T10:45:43.207Z,27.88
2017-07-17T10:46:42.615Z,27.92
2017-07-17T10:47:43.284Z,27.92
2017-07-17T10:48:43.313Z,27.96
2017-07-17T10:49:42.708Z,27.93
2017-07-17T10:50:43.376Z,27.84
2017-07-17T10:51:43.404Z,27.85
2017-07-17T10:52:43.433Z,27.92
2017-07-17T10:53:43.145Z,27.92
2017-07-17T10:54:43.486Z,27.88
2017-07-17T10:55:42.883Z,27.87
2017-07-17T10:56:43.231Z,27.96
2017-07-17T10:57:43.565Z,27.97
2017-07-17T10:58:42.974Z,27.85
2017-07-17T10:59:42.995Z,27.92
2017-07-17T11:00:43.686Z,27.85
2017-07-17T11:01:43.064Z,27.82
2017-07-17T11:02:44.032Z,27.96
2017-07-17T11:03:43.442Z,27.94
2017-07-17T11:04:43.506Z,27.9
2017-07-17T11:05:43.511Z,27.92
2017-07-17T11:06:43.861Z,27.97
2017-07-17T11:07:44.185Z,27.97
2017-07-17T11:08:43.596Z,27.93
2017-07-17T11:09:43.623Z,27.94
2017-07-17T11:10:43.648Z,27.97
2017-07-17T11:11:43.999Z,28.02
2017-07-17T11:12:44.273Z,27.99
2017-07-17T11:13:43.742Z,28.03
2017-07-17T11:14:44.098Z,28.02
2017-07-17T11:15:44.115Z,28.06
2017-07-17T11:16:43.831Z,28.06
2017-07-17T11:17:44.115Z,28.11
2017-07-17T11:18:44.210Z,28.07
2017-07-17T11:19:44.235Z,28.14
2017-07-17T11:20:44.288Z,28.06
2017-07-17T11:21:43.661Z,28.15
2017-07-17T11:22:44.315Z,28.14
2017-07-17T11:23:44.042Z,28.14
2017-07-17T11:24:43.753Z,28.18
2017-07-17T11:25:44.099Z,28.17
2017-07-17T11:26:44.128Z,28.24
2017-07-17T11:27:44.413Z,28.24
2017-07-17T11:28:44.194Z,28.21
2017-07-17T11:29:44.543Z,28.22
2017-07-17T11:30:44.245Z,28.19
2017-07-17T11:31:43.960Z,28.37
2017-07-17T11:32:44.569Z,28.33
2017-07-17T11:33:44.661Z,28.31
2017-07-17T11:34:44.692Z,28.39
2017-07-17T11:35:44.709Z,28.34
2017-07-17T11:36:44.753Z,28.39
2017-07-17T11:37:44.392Z,28.39
2017-07-17T11:38:44.526Z,28.48
2017-07-17T11:39:44.827Z,28.4
2017-07-17T11:40:44.552Z,28.58
2017-07-17T11:41:44.572Z,28.55
2017-07-17T11:42:45.186Z,28.59
2017-07-17T11:43:44.645Z,28.68
2017-07-17T11:44:44.676Z,28.71
2017-07-17T11:45:44.717Z,28.88
2017-07-17T11:56:12.965Z,29.37
2017-07-17T11:57:12.982Z,29.42
2017-07-17T11:59:13.052Z,29.46
2017-07-17T12:00:12.755Z,29.37
2017-07-17T12:01:12.787Z,29.41
2017-07-17T12:02:12.824Z,29.39
2017-07-17T12:03:13.421Z,29.31
2017-07-17T12:04:13.198Z,29.24
2017-07-17T12:06:13.264Z,29.26
2017-07-17T12:07:13.288Z,29.21
2017-07-17T12:08:13.258Z,29.23
2017-07-17T12:09:13.038Z,29.15
2017-07-17T12:10:13.388Z,29.14
2017-07-17T12:11:13.095Z,29.11
2017-07-17T12:12:13.460Z,29.06
2017-07-17T12:13:13.729Z,29.12
2017-07-17T12:14:13.196Z,29.08
2017-07-17T12:15:13.214Z,29.05
2017-07-17T12:16:13.243Z,29.19
2017-07-17T12:17:13.594Z,29.18
2017-07-17T12:18:13.934Z,29.3
2017-07-17T12:19:13.659Z,29.39
2017-07-17T12:20:13.056Z,29.52
2017-07-17T12:21:13.731Z,29.65
2017-07-17T12:22:13.458Z,29.86
2017-07-17T12:23:13.705Z,30.01
2017-07-17T12:24:13.507Z,30.22
2017-07-17T12:25:13.527Z,30.42
2017-07-17T12:26:13.880Z,30.61
2017-07-17T12:27:13.593Z,30.76
2017-07-17T12:28:13.926Z,30.84
2017-07-17T12:29:13.646Z,31.06
2017-07-17T12:30:13.687Z,31.17
2017-07-17T12:31:14.049Z,31.38
2017-07-17T12:32:14.087Z,31.53
2017-07-17T12:33:14.405Z,31.66
2017-07-17T12:34:14.142Z,31.75
2017-07-17T12:35:14.171Z,31.96
2017-07-17T12:36:14.202Z,32.04
2017-07-17T12:37:13.909Z,32.19
2017-07-17T12:38:14.530Z,32.32
2017-07-17T12:39:14.311Z,32.44
2017-07-17T12:40:14.020Z,32.44
2017-07-17T12:41:14.360Z,32.41
2017-07-17T12:42:14.086Z,32.45
2017-07-17T12:43:14.413Z,32.33
2017-07-17T12:44:13.828Z,32.41
2017-07-17T12:45:13.870Z,32.3
2017-07-17T12:46:14.542Z,32.29
2017-07-17T12:47:14.250Z,32.15
2017-07-17T12:48:14.583Z,32.06
2017-07-17T12:49:14.317Z,32.13
2017-07-17T12:50:14.348Z,32.03
2017-07-17T12:51:14.700Z,32.06
2017-07-17T12:52:14.442Z,32
2017-07-17T12:53:15.019Z,32.11
2017-07-17T12:54:14.507Z,32
2017-07-17T12:55:14.835Z,32.14
2017-07-17T12:56:14.557Z,32.18
2017-07-17T12:57:14.261Z,32.03
2017-07-17T12:58:15.187Z,32.15
2017-07-17T12:59:14.965Z,32.15
2017-07-17T13:00:14.684Z,32.23
2017-07-17T13:01:14.718Z,32.33
2017-07-17T13:02:15.071Z,32.35
2017-07-17T13:03:15.350Z,32.37
2017-07-17T13:04:14.816Z,32.3
2017-07-17T13:05:15.161Z,32.3
2017-07-17T13:06:15.213Z,32.21
2017-07-17T13:07:15.225Z,32.22
2017-07-17T13:08:15.249Z,32.26